Time;durP1;ratioP1;P1;durP2;ratioP2;P2;SDS_P1;SDS_P2;PMS_P1;PMS_P2;Temp;Humidity;BMP_temperature;BMP_pressure;BME280_temperature;BME280_humidity;BME280_pressure;Samples;Min_cycle;Max_cycle;Signal;HPM_P1;HPM_P2
2021/06/13 00:00:10;;;;;;;6.17;3.67;;;;;;;24.13;53.66;101104.80;1696902;83;21031;-48
2021/06/13 00:02:39;;;;;;;4.97;4.42;;;;;;;24.12;53.71;101102.26;1685745;84;21038;-48
2021/06/13 00:05:13;;;;;;;4.67;4.28;;;;;;;24.11;53.59;101104.06;1703169;83;21071;-48
2021/06/13 00:07:40;;;;;;;8.10;4.85;;;;;;;24.10;53.57;101099.72;1693116;84;21495;-48
2021/06/13 00:10:09;;;;;;;5.72;5.12;;;;;;;24.09;53.45;101092.69;1697018;83;21531;-48
2021/06/13 00:12:36;;;;;;;6.17;5.30;;;;;;;24.06;53.44;101090.27;1688793;83;21538;-48
2021/06/13 00:15:06;;;;;;;8.00;5.92;;;;;;;24.04;53.54;101092.19;1680585;84;21015;-48
2021/06/13 00:17:34;;;;;;;5.72;4.72;;;;;;;24.01;53.52;101092.36;1697887;84;21510;-48
2021/06/13 00:20:00;;;;;;;5.30;4.37;;;;;;;23.99;53.62;101080.98;1680856;83;21102;-48
2021/06/13 00:22:27;;;;;;;5.92;4.80;;;;;;;23.94;53.71;101076.50;1691267;83;21050;-48
2021/06/13 00:24:53;;;;;;;6.80;4.47;;;;;;;23.95;53.72;101078.66;1692388;83;21537;-48
2021/06/13 00:27:20;;;;;;;7.12;4.87;;;;;;;23.92;53.74;101077.09;1683227;83;21062;-48
2021/06/13 00:29:47;;;;;;;6.00;4.40;;;;;;;23.90;53.88;101084.33;1689822;83;21506;-48
2021/06/13 00:32:13;;;;;;;5.50;4.37;;;;;;;23.88;53.91;101083.59;1692104;83;21120;-48
2021/06/13 00:34:40;;;;;;;5.33;4.15;;;;;;;23.85;53.59;101075.82;1696075;83;21093;-48
2021/06/13 00:37:07;;;;;;;6.05;4.40;;;;;;;23.83;53.39;101076.88;1702177;84;21499;-49
2021/06/13 00:39:34;;;;;;;6.50;4.40;;;;;;;23.81;53.49;101082.31;1689631;83;21565;-48
2021/06/13 00:42:02;;;;;;;5.25;4.45;;;;;;;23.79;53.62;101076.27;1692715;83;21029;-49
2021/06/13 00:44:29;;;;;;;5.53;4.12;;;;;;;23.76;53.85;101075.14;1689954;84;21041;-48
2021/06/13 00:46:56;;;;;;;4.85;4.12;;;;;;;23.73;53.86;101074.05;1699080;83;21023;-48
2021/06/13 00:49:23;;;;;;;6.17;4.42;;;;;;;23.73;53.85;101073.19;1703974;84;21522;-49
2021/06/13 00:51:52;;;;;;;4.60;4.03;;;;;;;23.70;53.75;101063.62;1690209;83;21045;-48
2021/06/13 00:54:18;;;;;;;4.85;4.33;;;;;;;23.70;53.71;101066.28;1680291;83;21537;-48
2021/06/13 00:56:46;;;;;;;9.23;4.47;;;;;;;23.69;53.67;101065.06;1689301;83;21491;-48
2021/06/13 00:59:13;;;;;;;4.35;3.80;;;;;;;23.66;53.61;101062.14;1697584;83;21007;-48
2021/06/13 01:01:40;;;;;;;4.35;3.90;;;;;;;23.65;53.69;101065.77;1677393;84;21122;-48
2021/06/13 01:04:07;;;;;;;5.35;3.95;;;;;;;23.64;53.81;101062.73;1685454;83;21055;-48
2021/06/13 01:06:44;;;;;;;5.25;3.67;;;;;;;23.62;53.88;101055.34;1702754;84;21054;-48
2021/06/13 01:09:12;;;;;;;4.85;4.45;;;;;;;23.63;53.75;101050.89;1687717;83;21590;-48
2021/06/13 01:11:56;;;;;;;4.35;3.85;;;;;;;23.61;53.62;101048.35;1675422;83;21079;-48
2021/06/13 01:14:51;;;;;;;4.15;3.72;;;;;;;23.60;53.58;101046.63;1668570;84;21749;-49
2021/06/13 01:17:31;;;;;;;4.00;3.60;;;;;;;23.59;53.56;101046.28;1628894;86;21074;-48
2021/06/13 01:20:25;;;;;;;4.22;3.90;;;;;;;23.58;53.63;101043.71;1634599;86;21121;-49
2021/06/13 01:23:19;;;;;;;4.10;3.80;;;;;;;23.57;53.67;101046.02;1632389;87;21050;-49
2021/06/13 01:26:19;;;;;;;7.72;3.77;;;;;;;23.55;53.63;101048.79;1676204;84;21015;-49
2021/06/13 01:29:19;;;;;;;4.15;3.80;;;;;;;23.54;53.64;101047.08;1664148;84;21614;-48
2021/06/13 01:31:54;;;;;;;4.03;3.50;;;;;;;23.53;53.74;101045.39;1625166;87;21806;-48
2021/06/13 01:34:26;;;;;;;4.58;3.90;;;;;;;23.51;53.79;101044.66;1628799;87;21014;-48
2021/06/13 01:36:55;;;;;;;5.20;3.67;;;;;;;23.52;53.85;101044.15;1582482;90;21056;-48
2021/06/13 01:39:25;;;;;;;4.10;3.65;;;;;;;23.51;53.87;101048.63;1537894;91;21065;-48
2021/06/13 01:41:53;;;;;;;4.58;3.80;;;;;;;23.49;53.97;101046.56;1532674;93;21096;-48
2021/06/13 01:44:20;;;;;;;5.30;4.22;;;;;;;23.48;54.09;101034.70;1563525;90;21592;-48
2021/06/13 01:46:50;;;;;;;5.42;4.35;;;;;;;23.48;54.16;101039.54;1563581;89;21069;-48
2021/06/13 01:49:18;;;;;;;5.03;3.90;;;;;;;23.47;54.09;101033.02;1552590;90;21625;-48
2021/06/13 01:51:46;;;;;;;4.67;4.22;;;;;;;23.45;54.10;101038.45;1581126;88;21093;-48
2021/06/13 01:54:13;;;;;;;5.62;4.33;;;;;;;23.45;54.11;101042.43;1550593;92;21066;-48
2021/06/13 01:56:47;;;;;;;6.10;4.37;;;;;;;23.44;54.18;101038.06;1564889;89;21606;-48
2021/06/13 01:59:16;;;;;;;4.45;4.05;;;;;;;23.43;54.19;101033.72;1600091;88;21101;-47
2021/06/13 02:01:46;;;;;;;5.10;3.90;;;;;;;23.41;54.22;101044.43;1596215;88;21162;-49
2021/06/13 02:04:13;;;;;;;5.42;4.65;;;;;;;23.39;54.27;101036.19;1598985;89;21101;-48
2021/06/13 02:06:49;;;;;;;4.53;3.93;;;;;;;23.40;54.28;101032.59;1581408;89;21097;-48
2021/06/13 02:09:20;;;;;;;4.37;3.95;;;;;;;23.40;54.31;101033.92;1587352;87;21738;-49
2021/06/13 02:11:48;;;;;;;4.28;3.87;;;;;;;23.39;54.36;101032.20;1606931;87;21129;-48
2021/06/13 02:14:17;;;;;;;4.70;4.30;;;;;;;23.38;54.39;101029.20;1601678;85;21059;-48
2021/06/13 02:16:45;;;;;;;4.00;3.70;;;;;;;23.37;54.34;101031.00;1689487;83;21090;-48
2021/06/13 02:19:15;;;;;;;4.42;4.00;;;;;;;23.36;54.34;101031.11;1682733;83;21514;-48
2021/06/13 02:21:44;;;;;;;4.60;4.20;;;;;;;;;;1700030;83;21073;-48
2021/06/13 02:24:12;;;;;;;6.00;4.20;;;;;;;23.35;54.46;101022.76;1656554;86;21031;-48
2021/06/13 02:26:40;;;;;;;5.28;4.53;;;;;;;23.34;54.49;101021.94;1658407;86;21075;-48
2021/06/13 02:29:07;;;;;;;6.62;4.37;;;;;;;23.34;54.60;101024.59;1638775;85;21504;-48
2021/06/13 02:31:35;;;;;;;4.80;4.30;;;;;;;23.35;54.62;101025.41;1647390;86;21107;-48
2021/06/13 02:34:03;;;;;;;5.08;4.58;;;;;;;23.33;54.59;101018.03;1636703;87;21527;-48
2021/06/13 02:36:30;;;;;;;4.65;3.70;;;;;;;23.35;54.31;101014.80;1657455;86;21075;-48
2021/06/13 02:39:02;;;;;;;5.33;3.72;;;;;;;23.35;54.12;101010.81;1657768;85;21096;-48
2021/06/13 02:41:29;;;;;;;6.03;4.20;;;;;;;23.35;53.90;101016.13;1658342;86;21564;-48
2021/06/13 02:43:56;;;;;;;4.60;4.20;;;;;;;23.34;53.87;101019.28;1656013;86;21065;-48
2021/06/13 02:46:24;;;;;;;4.80;4.28;;;;;;;23.33;53.85;101015.38;1657139;86;21044;-48
2021/06/13 02:48:52;;;;;;;5.83;5.30;;;;;;;23.32;53.85;101009.72;1659548;86;21131;-48
2021/06/13 02:51:23;;;;;;;5.15;4.30;;;;;;;23.31;53.86;101009.30;1658840;86;21068;-48
2021/06/13 02:53:54;;;;;;;4.45;4.05;;;;;;;23.32;53.97;101009.72;1654350;86;21011;-48
2021/06/13 02:56:53;;;;;;;4.92;3.92;;;;;;;23.33;54.06;101014.05;1658404;86;21563;-48
2021/06/13 02:59:40;;;;;;;4.45;4.05;;;;;;;23.32;54.00;101016.36;1656128;86;21059;-48
2021/06/13 03:02:11;;;;;;;5.65;4.25;;;;;;;23.32;53.96;101020.34;1649006;86;21079;-48
2021/06/13 03:04:40;;;;;;;4.40;4.10;;;;;;;23.32;53.99;101015.03;1658734;86;21037;-49
2021/06/13 03:07:07;;;;;;;6.58;4.50;;;;;;;23.32;53.98;101012.38;1658123;86;21121;-49
2021/06/13 03:09:35;;;;;;;5.10;4.60;;;;;;;23.32;54.09;101009.72;1636524;86;21030;-47
2021/06/13 03:12:04;;;;;;;8.35;4.55;;;;;;;23.34;53.97;101013.97;1656502;86;21529;-48
2021/06/13 03:14:32;;;;;;;5.55;3.87;;;;;;;;;;1638214;86;21063;-47
2021/06/13 03:16:59;;;;;;;5.25;4.05;;;;;;;23.37;53.80;101012.87;1659388;86;21020;-47
2021/06/13 03:19:27;;;;;;;6.37;4.00;;;;;;;23.39;53.80;101010.96;1656928;86;21575;-47
2021/06/13 03:21:54;;;;;;;4.28;3.87;;;;;;;23.39;53.93;101012.29;1689891;83;20999;-49
2021/06/13 03:24:21;;;;;;;5.00;3.83;;;;;;;23.42;53.85;101013.41;1694680;84;21042;-47
2021/06/13 03:26:50;;;;;;;5.40;4.60;;;;;;;23.44;53.95;101005.72;1685853;83;21009;-47
2021/06/13 03:29:17;;;;;;;5.33;4.28;;;;;;;23.47;53.99;101007.31;1691362;83;21035;-47
2021/06/13 03:31:46;;;;;;;5.70;4.25;;;;;;;23.49;54.01;101009.38;1686396;83;21038;-47
2021/06/13 03:34:13;;;;;;;6.25;4.10;;;;;;;23.52;53.88;101003.83;1691293;83;21058;-47
2021/06/13 03:36:41;;;;;;;4.65;4.03;;;;;;;23.57;53.75;101003.04;1692336;83;21575;-47
2021/06/13 03:39:09;;;;;;;5.17;3.80;;;;;;;23.65;53.92;101009.13;1693089;84;21484;-47
2021/06/13 03:41:35;;;;;;;4.28;3.87;;;;;;;23.83;54.18;100996.69;1695491;83;20983;-47
2021/06/13 03:44:04;;;;;;;4.05;3.33;;;;;;;24.28;53.34;100991.64;1685749;83;21102;-47
2021/06/13 03:46:30;;;;;;;4.58;2.98;;;;;;;24.93;51.90;100996.34;1689313;83;21595;-48
2021/06/13 03:48:58;;;;;;;8.98;4.00;;;;;;;25.71;50.12;100993.21;1696946;84;21047;-48
2021/06/13 03:51:25;;;;;;;7.67;3.67;;;;;;;27.35;46.47;100983.69;1672632;84;21029;-48
2021/06/13 03:53:55;;;;;;;3.55;3.25;;;;;;;27.35;46.47;100983.69;1684049;83;21046;-48
2021/06/13 03:56:28;;;;;;;4.87;3.65;;;;;;;28.17;44.42;100978.98;1698519;83;21494;-48
2021/06/13 03:58:54;;;;;;;5.90;3.15;;;;;;;28.95;42.46;100978.25;1692257;83;21042;-48
2021/06/13 04:01:22;;;;;;;3.10;2.80;;;;;;;29.70;40.78;100973.23;1700438;83;21004;-48
2021/06/13 04:03:53;;;;;;;5.15;3.75;;;;;;;30.31;39.48;100962.69;1684250;83;21043;-48
2021/06/13 04:06:22;;;;;;;5.50;3.40;;;;;;;30.62;38.40;100963.09;1703544;83;20978;-48
2021/06/13 04:08:50;;;;;;;5.75;3.70;;;;;;;30.61;37.94;100960.05;1659387;86;21046;-48
2021/06/13 04:11:18;;;;;;;7.20;3.37;;;;;;;30.39;38.03;100963.60;1625641;86;21061;-48
2021/06/13 04:13:47;;;;;;;4.15;2.92;;;;;;;30.11;38.30;100967.84;1635253;86;21109;-47
2021/06/13 04:16:14;;;;;;;5.15;3.05;;;;;;;29.84;38.72;100967.41;1650720;87;21559;-48
2021/06/13 04:18:42;;;;;;;6.05;3.67;;;;;;;29.57;39.02;100973.58;1648589;86;21134;-48
2021/06/13 04:23:43;;;;;;;4.70;3.20;;;;;;;28.92;39.60;100965.17;1587149;89;21107;-48
2021/06/13 04:26:21;;;;;;;4.58;3.30;;;;;;;28.58;40.11;100964.00;1589172;89;21546;-48
2021/06/13 04:28:49;;;;;;;5.70;3.42;;;;;;;28.27;40.67;100969.13;1577575;89;21065;-48
2021/06/13 04:31:17;;;;;;;3.50;2.87;;;;;;;27.94;41.10;100965.00;1591490;89;21122;-48
2021/06/13 04:33:48;;;;;;;3.80;3.05;;;;;;;27.67;41.69;100964.81;1574391;89;21118;-48
2021/06/13 04:36:18;;;;;;;4.67;3.47;;;;;;;27.41;42.14;100968.94;1590500;89;21634;-47
2021/06/13 04:38:45;;;;;;;5.37;3.37;;;;;;;27.17;42.79;100973.25;1584013;89;21070;-47
2021/06/13 04:41:12;;;;;;;4.10;3.10;;;;;;;26.96;43.21;100977.78;1589031;88;21062;-48
2021/06/13 04:43:38;;;;;;;4.40;3.30;;;;;;;26.60;44.08;100964.89;1586196;87;21585;-49
2021/06/13 04:46:08;;;;;;;3.80;2.98;;;;;;;26.60;44.08;100964.89;1582587;89;21067;-48
2021/06/13 04:48:34;;;;;;;4.75;3.42;;;;;;;26.46;44.27;100974.56;1580150;89;21614;-49
2021/06/13 04:51:04;;;;;;;3.27;2.90;;;;;;;26.34;44.53;100972.89;1592216;89;21035;-49
2021/06/13 04:54:02;;;;;;;4.10;3.70;;;;;;;26.23;44.95;100967.63;1588308;88;21086;-48
2021/06/13 04:57:07;;;;;;;4.17;3.77;;;;;;;26.10;46.17;100971.80;1572974;89;21087;-49
2021/06/13 04:59:34;;;;;;;4.12;3.20;;;;;;;26.10;46.17;100971.80;1494403;95;21067;-48
2021/06/13 05:02:00;;;;;;;5.33;3.42;;;;;;;26.00;45.58;100970.84;1486855;95;21087;-48
2021/06/13 05:04:29;;;;;;;3.42;2.65;;;;;;;26.00;45.58;100970.84;1490791;94;21631;-48
2021/06/13 05:06:56;;;;;;;3.87;3.58;;;;;;;26.00;45.40;100968.17;1521129;93;21056;-48
2021/06/13 05:09:23;;;;;;;4.03;3.55;;;;;;;26.07;45.45;100961.85;1523401;94;21111;-48
2021/06/13 05:11:50;;;;;;;11.75;10.55;;;;;;;26.28;44.70;100962.73;1517276;92;21602;-49
2021/06/13 05:14:16;;;;;;;4.47;4.08;;;;;;;26.28;44.70;100962.73;1511135;92;21090;-49
2021/06/13 05:16:43;;;;;;;3.22;2.83;;;;;;;26.40;44.83;100959.04;1521106;93;21105;-49
2021/06/13 05:19:10;;;;;;;2.72;2.52;;;;;;;26.51;44.48;100956.32;1528087;92;21070;-48
2021/06/13 05:21:37;;;;;;;3.02;2.72;;;;;;;26.65;44.23;100961.33;1509055;93;21104;-48
2021/06/13 05:24:05;;;;;;;3.35;2.30;;;;;;;26.78;44.06;100967.84;1514284;92;21265;-48
2021/06/13 05:26:33;;;;;;;12.03;10.78;;;;;;;26.90;44.05;100964.96;1543394;88;21115;-48
2021/06/13 05:29:00;;;;;;;24.43;21.60;;;;;;;27.00;43.63;100965.85;1583158;89;21097;-49
2021/06/13 05:31:27;;;;;;;5.97;5.40;;;;;;;27.07;44.07;100968.36;1588866;88;21605;-49
2021/06/13 05:33:54;;;;;;;4.40;4.00;;;;;;;27.10;44.88;100962.73;1578890;89;21062;-49
2021/06/13 05:36:22;;;;;;;12.98;11.60;;;;;;;27.08;45.78;100961.20;1667609;83;21055;-49
2021/06/13 05:38:49;;;;;;;7.35;4.25;;;;;;;27.04;46.61;100967.76;1678324;83;21046;-48
2021/06/13 05:41:15;;;;;;;3.37;3.02;;;;;;;26.99;47.25;100961.98;1709724;83;21022;-49
2021/06/13 05:43:43;;;;;;;3.47;3.10;;;;;;;26.95;47.68;100964.57;1692360;83;21478;-49
2021/06/13 05:46:09;;;;;;;3.70;2.70;;;;;;;26.94;47.95;100958.86;1686701;83;21081;-48
2021/06/13 05:48:37;;;;;;;3.10;2.90;;;;;;;26.95;48.06;100965.42;1680926;83;21073;-49
2021/06/13 05:51:05;;;;;;;3.10;2.80;;;;;;;26.95;48.02;100958.75;1682853;83;21008;-48
2021/06/13 05:53:31;;;;;;;2.80;2.55;;;;;;;26.97;47.83;100962.13;1683773;83;21023;-49
2021/06/13 05:55:58;;;;;;;6.03;5.50;;;;;;;27.02;47.75;100957.22;1695704;83;21514;-49
2021/06/13 05:58:25;;;;;;;4.05;3.62;;;;;;;27.10;47.64;100957.39;1681826;83;20978;-48
2021/06/13 06:00:52;;;;;;;7.30;3.50;;;;;;;27.19;47.31;100951.26;1705229;83;21023;-49
2021/06/13 06:03:18;;;;;;;3.75;3.10;;;;;;;27.29;46.92;100948.61;1715421;83;21058;-49
2021/06/13 06:05:46;;;;;;;6.05;4.10;;;;;;;27.36;46.64;100947.98;1704937;83;21071;-49
2021/06/13 06:08:13;;;;;;;5.85;2.77;;;;;;;27.42;46.55;100944.40;1695466;83;21070;-49
2021/06/13 06:10:39;;;;;;;8.78;7.12;;;;;;;27.47;46.44;100947.52;1683817;83;21168;-47
2021/06/13 06:13:06;;;;;;;12.13;10.88;;;;;;;27.55;45.95;100947.68;1692526;83;21541;-47
2021/06/13 06:15:36;;;;;;;3.92;3.37;;;;;;;27.68;45.10;100949.59;1696958;83;21094;-48
2021/06/13 06:18:03;;;;;;;3.22;2.58;;;;;;;27.82;44.46;100941.20;1679058;83;21018;-48
2021/06/13 06:20:31;;;;;;;3.17;2.60;;;;;;;27.97;44.19;100947.35;1690501;83;21004;-47
2021/06/13 06:22:59;;;;;;;2.80;2.52;;;;;;;28.11;43.72;100947.41;1677979;83;21081;-48
2021/06/13 06:25:26;;;;;;;3.10;2.50;;;;;;;28.17;43.71;100944.20;1692928;83;21158;-47
2021/06/13 06:27:53;;;;;;;2.98;2.20;;;;;;;28.19;43.80;100942.23;1681433;83;21039;-49
2021/06/13 06:30:22;;;;;;;2.37;2.17;;;;;;;28.17;43.85;100935.66;1705459;83;21070;-48
2021/06/13 06:32:50;;;;;;;2.83;2.27;;;;;;;28.13;44.15;100934.77;1688936;83;21062;-49
2021/06/13 06:35:17;;;;;;;4.00;2.80;;;;;;;28.09;44.50;100930.66;1707943;84;21042;-48
2021/06/13 06:37:44;;;;;;;8.05;3.08;;;;;;;28.06;44.80;100926.95;1691549;83;21063;-48
2021/06/13 06:40:12;;;;;;;2.75;2.55;;;;;;;28.02;45.06;100922.86;1677609;83;21047;-49
2021/06/13 06:42:40;;;;;;;5.45;2.60;;;;;;;28.02;45.35;100928.21;1681808;83;21515;-48
2021/06/13 06:45:09;;;;;;;2.33;2.20;;;;;;;28.02;45.42;100928.21;1679375;84;21050;-47
2021/06/13 06:47:36;;;;;;;2.47;2.27;;;;;;;28.02;45.63;100923.72;1701615;83;21566;-48
2021/06/13 06:50:04;;;;;;;2.67;2.47;;;;;;;28.00;45.81;100918.14;1696286;83;21046;-48
2021/06/13 06:52:31;;;;;;;3.58;2.67;;;;;;;27.99;45.95;100921.79;1701712;83;21034;-48
2021/06/13 06:54:58;;;;;;;8.43;2.95;;;;;;;27.99;46.10;100919.12;1693462;83;21479;-50
2021/06/13 06:57:26;;;;;;;27.65;24.98;;;;;;;27.99;46.16;100919.12;1683875;84;21016;-48
2021/06/13 06:59:54;;;;;;;5.30;4.33;;;;;;;27.97;46.44;100929.97;1694664;83;21101;-48
2021/06/13 07:02:21;;;;;;;7.62;3.02;;;;;;;27.98;46.76;100922.80;1691793;84;21093;-48
2021/06/13 07:04:47;;;;;;;5.37;2.55;;;;;;;28.10;46.82;100924.34;1689496;83;21015;-48
2021/06/13 07:07:14;;;;;;;2.70;2.50;;;;;;;28.30;46.60;100917.98;1688945;84;21039;-48
2021/06/13 07:09:41;;;;;;;5.22;2.55;;;;;;;28.53;46.20;100919.36;1690867;83;21189;-48
2021/06/13 07:12:10;;;;;;;2.58;2.37;;;;;;;28.70;45.86;100921.33;1695400;84;21094;-48
2021/06/13 07:14:37;;;;;;;2.50;2.08;;;;;;;28.78;45.65;100920.11;1686555;83;21018;-49
2021/06/13 07:17:04;;;;;;;2.87;1.67;;;;;;;28.85;45.03;100919.86;1650159;85;21106;-48
2021/06/13 07:19:31;;;;;;;3.50;1.65;;;;;;;28.90;43.95;100921.61;1642561;86;21130;-48
2021/06/13 07:21:58;;;;;;;3.77;1.90;;;;;;;28.94;43.43;100921.66;1636940;86;21114;-48
2021/06/13 07:24:26;;;;;;;1.45;1.35;;;;;;;28.95;43.10;100917.98;1644870;86;21514;-48
2021/06/13 07:26:52;;;;;;;2.10;1.85;;;;;;;28.95;43.12;100920.66;1690343;83;21027;-48
2021/06/13 07:29:19;;;;;;;4.53;1.95;;;;;;;28.93;43.22;100922.64;1696621;84;21558;-49
2021/06/13 07:31:47;;;;;;;2.62;1.90;;;;;;;28.90;43.49;100918.94;1707322;84;21125;-48
2021/06/13 07:34:14;;;;;;;5.85;5.25;;;;;;;28.84;43.70;100918.19;1709421;84;21085;-49
2021/06/13 07:36:40;;;;;;;4.75;3.55;;;;;;;28.78;44.04;100921.45;1693154;83;21016;-49
2021/06/13 07:39:07;;;;;;;5.90;2.30;;;;;;;28.73;44.21;100921.52;1705556;83;21067;-47
2021/06/13 07:41:34;;;;;;;5.50;2.10;;;;;;;28.65;44.21;100912.88;1686108;83;21097;-48
2021/06/13 07:44:01;;;;;;;2.83;1.70;;;;;;;28.55;44.45;100916.53;1696983;83;21050;-48
2021/06/13 07:46:28;;;;;;;3.55;2.10;;;;;;;28.45;44.71;100916.56;1682744;83;21042;-47
2021/06/13 07:48:57;;;;;;;4.50;2.05;;;;;;;28.39;44.92;100916.28;1709697;83;21073;-47
2021/06/13 07:51:23;;;;;;;5.08;2.33;;;;;;;28.34;44.98;100912.69;1695939;84;21010;-47
2021/06/13 07:53:50;;;;;;;2.62;2.30;;;;;;;28.29;45.03;100907.42;1712742;83;21474;-48
2021/06/13 07:56:17;;;;;;;3.15;2.00;;;;;;;28.24;45.07;100903.83;1708981;83;21539;-47
2021/06/13 07:58:44;;;;;;;3.58;2.00;;;;;;;28.20;45.29;100906.45;1697515;83;21124;-48
2021/06/13 08:01:10;;;;;;;4.58;2.22;;;;;;;28.15;45.51;100897.50;1686747;83;21535;-47
2021/06/13 08:03:39;;;;;;;2.35;1.90;;;;;;;28.12;45.68;100902.30;1691827;83;20994;-48
2021/06/13 08:06:06;;;;;;;4.17;2.40;;;;;;;28.10;45.75;100897.59;1701177;82;21031;-48
2021/06/13 08:08:33;;;;;;;3.70;2.20;;;;;;;28.06;46.05;100891.69;1686875;84;21018;-48
2021/06/13 08:11:00;;;;;;;4.00;2.05;;;;;;;28.04;46.25;100898.16;1687621;83;21058;-48
2021/06/13 08:13:27;;;;;;;4.65;2.65;;;;;;;28.03;46.34;100897.78;1694124;83;21018;-48
2021/06/13 08:15:54;;;;;;;2.95;2.00;;;;;;;28.02;46.21;100900.98;1691891;84;21047;-48
2021/06/13 08:18:21;;;;;;;6.95;2.00;;;;;;;28.03;46.08;100893.77;1703765;83;20996;-47
2021/06/13 08:20:48;;;;;;;6.28;2.00;;;;;;;28.03;45.91;100891.09;1691534;83;21034;-48
2021/06/13 08:23:15;;;;;;;2.55;1.85;;;;;;;28.06;45.92;100892.17;1666893;84;21070;-48
2021/06/13 08:25:41;;;;;;;3.92;1.92;;;;;;;28.08;45.94;100896.88;1668465;85;21562;-48
2021/06/13 08:28:08;;;;;;;3.83;1.87;;;;;;;28.08;46.10;100891.53;1648738;86;21141;-48
2021/06/13 08:30:35;;;;;;;3.02;1.80;;;;;;;28.11;46.05;100889.89;1648015;85;21105;-48
2021/06/13 08:33:02;;;;;;;40.08;32.63;;;;;;;28.11;46.08;100893.91;1700146;83;21546;-48
2021/06/13 08:35:29;;;;;;;7.83;6.25;;;;;;;28.12;46.07;100896.95;1700928;83;21031;-48
2021/06/13 08:37:57;;;;;;;3.60;3.00;;;;;;;28.13;46.02;100899.99;1694549;83;21066;-48
2021/06/13 08:40:25;;;;;;;2.30;2.10;;;;;;;28.11;45.93;100899.26;1695845;83;21054;-47
2021/06/13 08:42:53;;;;;;;4.05;1.62;;;;;;;28.06;45.99;100904.20;1683201;84;21082;-48
2021/06/13 08:45:20;;;;;;;1.60;1.50;;;;;;;27.99;46.18;100900.39;1682027;83;21038;-48
2021/06/13 08:47:52;;;;;;;4.87;2.05;;;;;;;27.94;46.39;100889.25;1693387;83;21026;-48
2021/06/13 08:50:18;;;;;;;3.08;1.90;;;;;;;27.89;46.59;100887.48;1693853;83;21069;-48
2021/06/13 08:52:48;;;;;;;3.42;1.87;;;;;;;27.88;46.78;100888.48;1691751;83;21008;-48
2021/06/13 08:55:16;;;;;;;2.40;2.20;;;;;;;27.86;47.07;100882.43;1671060;84;21031;-49
2021/06/13 08:57:43;;;;;;;5.67;1.77;;;;;;;27.88;47.37;100881.80;1692543;83;21346;-48
2021/06/13 09:00:13;;;;;;;3.87;2.08;;;;;;;27.93;47.36;100880.38;1649885;85;21091;-48
2021/06/13 09:02:40;;;;;;;7.28;2.08;;;;;;;27.97;47.41;100883.64;1710880;83;21047;-48
2021/06/13 09:05:11;;;;;;;4.60;1.95;;;;;;;28.02;47.32;100876.05;1700137;82;21494;-48
2021/06/13 09:08:04;;;;;;;6.90;2.42;;;;;;;28.08;47.21;100880.83;1643613;85;21533;-48
2021/06/13 09:10:32;;;;;;;4.30;2.17;;;;;;;28.11;46.84;100880.05;1626142;85;21561;-49
2021/06/13 09:13:08;;;;;;;3.85;3.33;;;;;;;28.11;46.60;100874.70;1615274;87;21087;-48
2021/06/13 09:15:55;;;;;;;2.98;2.15;;;;;;;28.09;46.55;100871.80;1540264;91;21119;-49
2021/06/13 09:18:44;;;;;;;6.03;1.90;;;;;;;28.07;46.47;100877.30;1591169;88;21143;-48
2021/06/13 09:21:28;;;;;;;10.78;2.25;;;;;;;28.05;46.21;100870.40;1571203;90;21087;-48
2021/06/13 09:23:55;;;;;;;7.75;1.80;;;;;;;28.04;45.99;100871.40;1558796;90;21554;-47
2021/06/13 09:26:28;;;;;;;11.00;2.00;;;;;;;28.02;46.06;100867.54;1574448;90;21056;-48
2021/06/13 09:28:56;;;;;;;3.47;1.70;;;;;;;28.01;46.20;100859.63;1554148;90;21171;-49
2021/06/13 09:31:26;;;;;;;5.97;2.35;;;;;;;27.99;46.32;100860.27;1536526;91;21147;-48
2021/06/13 09:33:55;;;;;;;16.50;3.52;;;;;;;27.99;46.49;100864.28;1564289;90;21097;-49
2021/06/13 09:36:28;;;;;;;6.00;2.65;;;;;;;27.95;46.87;100861.02;1557794;90;21001;-49
2021/06/13 09:39:05;;;;;;;4.12;2.10;;;;;;;27.96;47.18;100865.92;1519129;93;21593;-48
2021/06/13 09:41:35;;;;;;;5.50;1.87;;;;;;;27.96;47.43;100865.92;1526727;93;21060;-48
2021/06/13 09:44:06;;;;;;;3.35;2.40;;;;;;;28.00;47.54;100864.65;1513009;93;21077;-48
2021/06/13 09:46:40;;;;;;;4.05;2.25;;;;;;;28.03;47.63;100860.33;1501473;94;21533;-49
2021/06/13 09:49:11;;;;;;;6.25;2.58;;;;;;;28.09;47.74;100858.42;1514458;94;21116;-49
2021/06/13 09:51:43;;;;;;;7.63;4.03;;;;;;;28.15;47.75;100852.53;1514996;94;21161;-49
2021/06/13 09:54:23;;;;;;;4.85;3.67;;;;;;;28.19;47.74;100852.59;1402468;101;21724;-48
2021/06/13 09:56:50;;;;;;;4.58;2.52;;;;;;;28.23;47.79;100844.63;1372819;103;21156;-49
2021/06/13 09:59:25;;;;;;;6.85;2.90;;;;;;;28.26;47.95;100845.66;1366639;103;21185;-49
2021/06/13 10:01:57;;;;;;;6.37;2.35;;;;;;;28.26;48.13;100840.80;1372006;103;21164;-49
2021/06/13 10:04:33;;;;;;;3.45;2.60;;;;;;;28.26;48.22;100841.65;1370956;103;21148;-48
2021/06/13 10:07:19;;;;;;;7.55;3.90;;;;;;;28.24;48.29;100832.92;1349833;103;22016;-48
2021/06/13 10:09:52;;;;;;;4.28;2.77;;;;;;;28.23;48.27;100831.73;1436222;99;21599;-48
2021/06/13 10:12:20;;;;;;;5.45;2.83;;;;;;;28.20;48.37;100834.20;1437524;99;21122;-49
2021/06/13 10:14:51;;;;;;;5.90;2.72;;;;;;;28.15;48.37;100828.45;1443768;98;21213;-49
2021/06/13 10:17:18;;;;;;;4.90;2.55;;;;;;;28.14;48.28;100822.25;1434953;98;21173;-48
2021/06/13 10:19:47;;;;;;;6.47;2.65;;;;;;;28.14;48.07;100818.23;1417825;100;21185;-48
2021/06/13 10:22:15;;;;;;;4.60;2.50;;;;;;;28.13;48.07;100813.86;1436592;99;21208;-47
2021/06/13 10:24:43;;;;;;;5.22;2.50;;;;;;;28.11;48.00;100814.98;1433599;99;21102;-48
2021/06/13 10:27:17;;;;;;;5.72;2.60;;;;;;;28.16;47.77;100816.75;1435315;99;21660;-48
2021/06/13 10:29:46;;;;;;;6.50;2.58;;;;;;;28.13;47.80;100817.05;1435327;99;21155;-48
2021/06/13 10:32:13;;;;;;;6.33;2.42;;;;;;;28.11;47.89;100813.64;1434780;98;21114;-48
2021/06/13 10:34:39;;;;;;;7.20;2.70;;;;;;;28.10;47.91;100810.64;1436608;97;21150;-48
2021/06/13 10:37:10;;;;;;;3.95;2.45;;;;;;;28.09;47.89;100811.61;1455118;97;21174;-49
2021/06/13 10:39:38;;;;;;;6.08;2.80;;;;;;;28.06;47.93;100803.89;1460849;97;21163;-48
2021/06/13 10:42:11;;;;;;;5.72;2.40;;;;;;;28.05;47.98;100808.88;1451693;97;21143;-49
2021/06/13 10:44:53;;;;;;;4.60;2.40;;;;;;;28.03;47.99;100802.82;1463025;96;21661;-49
2021/06/13 10:47:22;;;;;;;5.28;3.67;;;;;;;28.04;47.97;100801.84;1466834;97;21153;-48
2021/06/13 10:49:57;;;;;;;6.25;4.53;;;;;;;28.03;48.01;100800.15;1457742;93;21137;-48
2021/06/13 10:52:28;;;;;;;6.08;4.75;;;;;;;28.02;48.04;100798.47;1547079;90;21079;-48
2021/06/13 10:54:57;;;;;;;7.17;3.37;;;;;;;28.03;47.89;100801.48;1661281;85;21083;-49
2021/06/13 10:57:32;;;;;;;5.08;3.17;;;;;;;28.06;47.90;100795.86;1690410;83;21006;-49
2021/06/13 11:00:22;;;;;;;3.45;2.50;;;;;;;28.07;47.84;100797.53;1678046;84;21533;-49
2021/06/13 11:02:57;;;;;;;12.70;2.98;;;;;;;28.08;47.73;100797.90;1645066;85;21069;-50
2021/06/13 11:05:39;;;;;;;4.60;3.00;;;;;;;28.07;47.69;100796.20;1672403;84;21057;-50
2021/06/13 11:08:07;;;;;;;7.60;2.47;;;;;;;28.07;47.62;100791.70;1549815;91;21044;-49
2021/06/13 11:10:35;;;;;;;5.47;3.10;;;;;;;28.06;47.61;100785.16;1552955;91;21574;-49
2021/06/13 11:13:13;;;;;;;4.90;3.65;;;;;;;28.04;47.61;100784.46;1550971;91;21625;-49
2021/06/13 11:15:45;;;;;;;4.97;2.87;;;;;;;28.01;47.72;100783.39;1542129;91;21055;-49
2021/06/13 11:18:19;;;;;;;5.35;2.77;;;;;;;27.98;47.81;100775.68;1542499;91;21121;-50
2021/06/13 11:21:18;;;;;;;5.85;2.75;;;;;;;27.96;47.84;100774.98;1553975;91;21040;-49
2021/06/13 11:23:46;;;;;;;6.28;2.65;;;;;;;27.94;47.93;100771.57;1518150;93;21655;-49
2021/06/13 11:26:32;;;;;;;6.17;3.10;;;;;;;27.94;47.91;100774.25;1517937;94;21171;-49
2021/06/13 11:28:58;;;;;;;8.28;3.37;;;;;;;27.93;48.00;100771.20;1514588;93;21102;-49
2021/06/13 11:31:26;;;;;;;5.85;2.65;;;;;;;27.95;47.81;100766.07;1511529;93;21733;-48
2021/06/13 11:33:58;;;;;;;9.15;2.92;;;;;;;27.96;47.62;100761.61;1518104;93;21144;-49
2021/06/13 11:36:36;;;;;;;10.30;7.08;;;;;;;27.93;47.56;100764.03;1475839;96;21070;-47
2021/06/13 11:39:10;;;;;;;4.80;3.50;;;;;;;27.91;47.56;100764.67;1515018;94;21111;-48
2021/06/13 11:41:44;;;;;;;6.28;3.10;;;;;;;27.86;47.51;100754.89;1517971;93;21903;-47